sensor_id;sensor_type;location;lat;lon;timestamp;P1;durP1;ratioP1;P2;durP2;ratioP2
23888;SDS011;12125;40.102;18.326;2022-10-18T00:00:46;62.30;;;45.40;;
23888;SDS011;12125;40.102;18.326;2022-10-18T00:03:13;66.70;;;46.67;;
23888;SDS011;12125;40.102;18.326;2022-10-18T00:05:39;63.58;;;45.53;;
23888;SDS011;12125;40.102;18.326;2022-10-18T00:08:06;72.35;;;49.50;;
23888;SDS011;12125;40.102;18.326;2022-10-18T00:10:32;63.60;;;47.05;;
23888;SDS011;12125;40.102;18.326;2022-10-18T00:12:59;63.05;;;46.00;;
23888;SDS011;12125;40.102;18.326;2022-10-18T00:15:26;66.03;;;47.90;;
23888;SDS011;12125;40.102;18.326;2022-10-18T00:17:53;61.67;;;45.63;;
23888;SDS011;12125;40.102;18.326;2022-10-18T00:20:19;68.25;;;48.08;;
23888;SDS011;12125;40.102;18.326;2022-10-18T00:22:46;60.65;;;43.72;;
23888;SDS011;12125;40.102;18.326;2022-10-18T00:25:13;61.80;;;46.03;;
23888;SDS011;12125;40.102;18.326;2022-10-18T00:27:40;71.28;;;50.22;;
23888;SDS011;12125;40.102;18.326;2022-10-18T00:30:07;77.63;;;52.50;;
23888;SDS011;12125;40.102;18.326;2022-10-18T00:32:37;67.53;;;44.83;;
23888;SDS011;12125;40.102;18.326;2022-10-18T00:35:04;74.93;;;51.60;;
23888;SDS011;12125;40.102;18.326;2022-10-18T00:37:31;71.90;;;49.58;;
23888;SDS011;12125;40.102;18.326;2022-10-18T00:39:58;66.95;;;47.35;;
23888;SDS011;12125;40.102;18.326;2022-10-18T00:42:26;66.13;;;46.75;;
23888;SDS011;12125;40.102;18.326;2022-10-18T00:45:01;65.28;;;46.30;;
23888;SDS011;12125;40.102;18.326;2022-10-18T00:47:28;75.68;;;50.83;;
23888;SDS011;12125;40.102;18.326;2022-10-18T00:49:56;63.83;;;47.45;;
23888;SDS011;12125;40.102;18.326;2022-10-18T00:52:26;68.50;;;48.08;;
23888;SDS011;12125;40.102;18.326;2022-10-18T00:54:54;64.80;;;46.40;;
23888;SDS011;12125;40.102;18.326;2022-10-18T00:57:22;58.00;;;41.88;;
23888;SDS011;12125;40.102;18.326;2022-10-18T00:59:48;64.03;;;45.67;;
23888;SDS011;12125;40.102;18.326;2022-10-18T01:02:16;58.45;;;41.55;;
23888;SDS011;12125;40.102;18.326;2022-10-18T01:04:46;62.53;;;45.95;;
23888;SDS011;12125;40.102;18.326;2022-10-18T01:15:13;66.40;;;47.83;;
23888;SDS011;12125;40.102;18.326;2022-10-18T01:17:48;66.40;;;48.42;;
23888;SDS011;12125;40.102;18.326;2022-10-18T01:20:31;74.20;;;47.55;;
23888;SDS011;12125;40.102;18.326;2022-10-18T01:23:12;63.75;;;45.30;;
23888;SDS011;12125;40.102;18.326;2022-10-18T01:25:45;53.33;;;39.17;;
23888;SDS011;12125;40.102;18.326;2022-10-18T01:30:48;51.13;;;38.22;;
23888;SDS011;12125;40.102;18.326;2022-10-18T01:33:20;52.00;;;39.33;;
23888;SDS011;12125;40.102;18.326;2022-10-18T01:35:50;44.15;;;33.65;;
23888;SDS011;12125;40.102;18.326;2022-10-18T01:38:18;38.80;;;31.23;;
23888;SDS011;12125;40.102;18.326;2022-10-18T01:40:46;48.97;;;37.08;;
23888;SDS011;12125;40.102;18.326;2022-10-18T01:43:13;48.65;;;35.95;;
23888;SDS011;12125;40.102;18.326;2022-10-18T01:45:42;44.08;;;32.97;;
23888;SDS011;12125;40.102;18.326;2022-10-18T01:48:09;48.03;;;36.25;;
23888;SDS011;12125;40.102;18.326;2022-10-18T01:50:37;39.47;;;33.28;;
23888;SDS011;12125;40.102;18.326;2022-10-18T01:53:03;38.42;;;31.77;;
23888;SDS011;12125;40.102;18.326;2022-10-18T01:55:31;56.53;;;32.95;;
23888;SDS011;12125;40.102;18.326;2022-10-18T01:58:03;78.43;;;39.35;;
23888;SDS011;12125;40.102;18.326;2022-10-18T02:00:36;58.00;;;36.75;;
23888;SDS011;12125;40.102;18.326;2022-10-18T02:03:13;50.35;;;34.28;;
23888;SDS011;12125;40.102;18.326;2022-10-18T02:05:48;58.75;;;36.75;;
23888;SDS011;12125;40.102;18.326;2022-10-18T02:10:52;57.03;;;34.47;;
23888;SDS011;12125;40.102;18.326;2022-10-18T02:13:20;95.63;;;36.35;;
23888;SDS011;12125;40.102;18.326;2022-10-18T02:15:49;109.15;;;36.30;;
23888;SDS011;12125;40.102;18.326;2022-10-18T02:18:18;99.20;;;32.10;;
23888;SDS011;12125;40.102;18.326;2022-10-18T02:20:46;87.20;;;31.83;;
23888;SDS011;12125;40.102;18.326;2022-10-18T02:23:13;104.75;;;35.30;;
23888;SDS011;12125;40.102;18.326;2022-10-18T02:25:41;166.27;;;36.15;;
23888;SDS011;12125;40.102;18.326;2022-10-18T02:28:07;53.22;;;31.73;;
23888;SDS011;12125;40.102;18.326;2022-10-18T02:30:43;84.20;;;32.45;;
23888;SDS011;12125;40.102;18.326;2022-10-18T02:35:51;58.78;;;31.55;;
23888;SDS011;12125;40.102;18.326;2022-10-18T02:38:20;39.38;;;29.65;;
23888;SDS011;12125;40.102;18.326;2022-10-18T02:40:48;48.95;;;30.20;;
23888;SDS011;12125;40.102;18.326;2022-10-18T02:43:15;32.47;;;26.98;;
23888;SDS011;12125;40.102;18.326;2022-10-18T02:45:42;41.53;;;28.23;;
23888;SDS011;12125;40.102;18.326;2022-10-18T02:48:08;33.83;;;27.75;;
23888;SDS011;12125;40.102;18.326;2022-10-18T02:50:35;41.65;;;26.00;;
23888;SDS011;12125;40.102;18.326;2022-10-18T02:53:02;38.63;;;27.42;;
23888;SDS011;12125;40.102;18.326;2022-10-18T02:55:28;165.60;;;37.22;;
23888;SDS011;12125;40.102;18.326;2022-10-18T02:57:55;115.63;;;35.28;;
23888;SDS011;12125;40.102;18.326;2022-10-18T03:00:21;82.22;;;33.08;;
23888;SDS011;12125;40.102;18.326;2022-10-18T03:02:48;270.60;;;45.53;;
23888;SDS011;12125;40.102;18.326;2022-10-18T03:05:14;124.88;;;39.38;;
23888;SDS011;12125;40.102;18.326;2022-10-18T03:07:41;64.10;;;31.73;;
23888;SDS011;12125;40.102;18.326;2022-10-18T03:10:08;130.25;;;32.70;;
23888;SDS011;12125;40.102;18.326;2022-10-18T03:12:34;84.00;;;34.85;;
23888;SDS011;12125;40.102;18.326;2022-10-18T03:15:01;214.75;;;38.80;;
23888;SDS011;12125;40.102;18.326;2022-10-18T03:17:28;118.13;;;35.78;;
23888;SDS011;12125;40.102;18.326;2022-10-18T03:19:54;55.63;;;32.33;;
23888;SDS011;12125;40.102;18.326;2022-10-18T03:22:21;74.55;;;34.92;;
23888;SDS011;12125;40.102;18.326;2022-10-18T03:24:49;84.50;;;37.28;;
23888;SDS011;12125;40.102;18.326;2022-10-18T03:27:15;54.42;;;32.20;;
23888;SDS011;12125;40.102;18.326;2022-10-18T03:29:42;53.63;;;30.30;;
23888;SDS011;12125;40.102;18.326;2022-10-18T03:32:09;53.72;;;32.55;;
23888;SDS011;12125;40.102;18.326;2022-10-18T03:34:35;48.97;;;33.83;;
23888;SDS011;12125;40.102;18.326;2022-10-18T03:37:02;48.83;;;31.23;;
23888;SDS011;12125;40.102;18.326;2022-10-18T03:39:29;65.68;;;33.92;;
23888;SDS011;12125;40.102;18.326;2022-10-18T03:41:55;101.85;;;37.42;;
23888;SDS011;12125;40.102;18.326;2022-10-18T03:44:22;83.03;;;35.60;;
23888;SDS011;12125;40.102;18.326;2022-10-18T03:46:48;54.83;;;35.53;;
23888;SDS011;12125;40.102;18.326;2022-10-18T03:49:15;105.93;;;38.75;;
23888;SDS011;12125;40.102;18.326;2022-10-18T03:51:41;55.80;;;34.00;;
23888;SDS011;12125;40.102;18.326;2022-10-18T03:54:08;148.65;;;41.25;;
23888;SDS011;12125;40.102;18.326;2022-10-18T03:56:35;59.17;;;34.97;;
23888;SDS011;12125;40.102;18.326;2022-10-18T03:59:02;47.03;;;32.88;;
23888;SDS011;12125;40.102;18.326;2022-10-18T04:01:29;55.42;;;32.28;;
23888;SDS011;12125;40.102;18.326;2022-10-18T04:03:55;74.55;;;36.72;;
23888;SDS011;12125;40.102;18.326;2022-10-18T04:06:22;51.75;;;32.47;;
23888;SDS011;12125;40.102;18.326;2022-10-18T04:08:49;56.38;;;37.47;;
23888;SDS011;12125;40.102;18.326;2022-10-18T04:11:16;58.72;;;37.95;;
23888;SDS011;12125;40.102;18.326;2022-10-18T04:13:42;44.17;;;33.92;;
23888;SDS011;12125;40.102;18.326;2022-10-18T04:16:09;73.55;;;37.50;;
23888;SDS011;12125;40.102;18.326;2022-10-18T04:18:35;99.20;;;35.90;;
23888;SDS011;12125;40.102;18.326;2022-10-18T04:21:02;76.57;;;37.35;;
23888;SDS011;12125;40.102;18.326;2022-10-18T04:23:29;80.70;;;36.60;;
23888;SDS011;12125;40.102;18.326;2022-10-18T04:25:56;66.47;;;34.95;;
23888;SDS011;12125;40.102;18.326;2022-10-18T04:28:22;61.05;;;31.98;;
23888;SDS011;12125;40.102;18.326;2022-10-18T04:30:50;53.78;;;31.10;;
23888;SDS011;12125;40.102;18.326;2022-10-18T04:33:16;55.47;;;31.80;;
23888;SDS011;12125;40.102;18.326;2022-10-18T04:35:44;73.13;;;33.92;;
23888;SDS011;12125;40.102;18.326;2022-10-18T04:38:10;51.63;;;29.30;;
23888;SDS011;12125;40.102;18.326;2022-10-18T04:40:38;38.25;;;30.13;;
23888;SDS011;12125;40.102;18.326;2022-10-18T04:43:05;49.25;;;32.88;;
23888;SDS011;12125;40.102;18.326;2022-10-18T04:45:32;40.75;;;30.00;;
23888;SDS011;12125;40.102;18.326;2022-10-18T04:47:59;47.95;;;31.60;;
23888;SDS011;12125;40.102;18.326;2022-10-18T04:50:25;53.35;;;33.75;;
23888;SDS011;12125;40.102;18.326;2022-10-18T04:52:52;44.53;;;32.28;;
23888;SDS011;12125;40.102;18.326;2022-10-18T04:55:19;54.83;;;32.53;;
23888;SDS011;12125;40.102;18.326;2022-10-18T04:57:45;51.80;;;32.05;;
23888;SDS011;12125;40.102;18.326;2022-10-18T05:00:12;35.33;;;26.42;;
23888;SDS011;12125;40.102;18.326;2022-10-18T05:02:39;48.90;;;30.27;;
23888;SDS011;12125;40.102;18.326;2022-10-18T05:05:06;49.35;;;29.77;;
23888;SDS011;12125;40.102;18.326;2022-10-18T05:07:32;37.40;;;28.70;;
23888;SDS011;12125;40.102;18.326;2022-10-18T05:09:59;37.78;;;28.52;;
23888;SDS011;12125;40.102;18.326;2022-10-18T05:12:25;37.03;;;29.00;;
23888;SDS011;12125;40.102;18.326;2022-10-18T05:14:52;47.72;;;33.17;;
23888;SDS011;12125;40.102;18.326;2022-10-18T05:17:19;39.20;;;31.33;;
23888;SDS011;12125;40.102;18.326;2022-10-18T05:19:45;36.10;;;27.48;;
23888;SDS011;12125;40.102;18.326;2022-10-18T05:22:12;37.42;;;30.73;;
23888;SDS011;12125;40.102;18.326;2022-10-18T05:24:39;44.35;;;32.15;;
23888;SDS011;12125;40.102;18.326;2022-10-18T05:27:06;49.47;;;32.08;;
23888;SDS011;12125;40.102;18.326;2022-10-18T05:29:35;42.03;;;31.75;;
23888;SDS011;12125;40.102;18.326;2022-10-18T05:32:02;42.88;;;33.05;;
23888;SDS011;12125;40.102;18.326;2022-10-18T05:34:32;47.45;;;34.47;;
23888;SDS011;12125;40.102;18.326;2022-10-18T05:36:59;43.80;;;34.03;;
23888;SDS011;12125;40.102;18.326;2022-10-18T05:39:25;41.10;;;31.60;;
23888;SDS011;12125;40.102;18.326;2022-10-18T05:41:52;46.28;;;34.42;;
23888;SDS011;12125;40.102;18.326;2022-10-18T05:44:19;44.05;;;33.35;;
23888;SDS011;12125;40.102;18.326;2022-10-18T05:46:46;43.25;;;32.95;;
23888;SDS011;12125;40.102;18.326;2022-10-18T05:49:12;38.50;;;30.52;;
23888;SDS011;12125;40.102;18.326;2022-10-18T05:51:39;42.28;;;31.38;;
23888;SDS011;12125;40.102;18.326;2022-10-18T05:54:06;37.05;;;29.10;;
23888;SDS011;12125;40.102;18.326;2022-10-18T05:56:33;33.17;;;27.85;;
23888;SDS011;12125;40.102;18.326;2022-10-18T05:58:59;34.97;;;27.65;;
23888;SDS011;12125;40.102;18.326;2022-10-18T06:01:29;34.78;;;28.05;;
23888;SDS011;12125;40.102;18.326;2022-10-18T06:03:56;34.28;;;28.90;;
23888;SDS011;12125;40.102;18.326;2022-10-18T06:06:23;31.88;;;27.63;;
23888;SDS011;12125;40.102;18.326;2022-10-18T06:08:49;31.13;;;27.13;;
23888;SDS011;12125;40.102;18.326;2022-10-18T06:11:17;36.25;;;27.05;;
23888;SDS011;12125;40.102;18.326;2022-10-18T06:13:45;34.63;;;26.38;;
23888;SDS011;12125;40.102;18.326;2022-10-18T06:16:12;30.35;;;25.90;;
23888;SDS011;12125;40.102;18.326;2022-10-18T06:18:39;29.40;;;25.83;;
23888;SDS011;12125;40.102;18.326;2022-10-18T06:21:06;27.08;;;24.13;;
23888;SDS011;12125;40.102;18.326;2022-10-18T06:23:33;27.55;;;24.63;;
23888;SDS011;12125;40.102;18.326;2022-10-18T06:26:00;24.63;;;22.02;;
23888;SDS011;12125;40.102;18.326;2022-10-18T06:28:27;26.85;;;24.00;;
23888;SDS011;12125;40.102;18.326;2022-10-18T06:30:55;27.10;;;24.08;;
23888;SDS011;12125;40.102;18.326;2022-10-18T06:33:22;28.42;;;25.45;;
23888;SDS011;12125;40.102;18.326;2022-10-18T06:36:04;26.83;;;23.77;;
23888;SDS011;12125;40.102;18.326;2022-10-18T06:38:31;28.45;;;25.60;;
23888;SDS011;12125;40.102;18.326;2022-10-18T06:40:58;26.90;;;24.23;;
23888;SDS011;12125;40.102;18.326;2022-10-18T06:43:25;22.65;;;20.48;;
23888;SDS011;12125;40.102;18.326;2022-10-18T06:45:53;22.40;;;20.30;;
23888;SDS011;12125;40.102;18.326;2022-10-18T06:48:20;23.33;;;21.00;;
23888;SDS011;12125;40.102;18.326;2022-10-18T06:51:05;21.35;;;19.10;;
23888;SDS011;12125;40.102;18.326;2022-10-18T06:53:32;22.02;;;19.85;;
23888;SDS011;12125;40.102;18.326;2022-10-18T06:56:00;20.20;;;18.25;;
23888;SDS011;12125;40.102;18.326;2022-10-18T06:58:27;20.73;;;18.73;;
23888;SDS011;12125;40.102;18.326;2022-10-18T07:00:53;23.35;;;21.02;;
23888;SDS011;12125;40.102;18.326;2022-10-18T07:03:20;39.00;;;20.23;;
23888;SDS011;12125;40.102;18.326;2022-10-18T07:05:47;19.13;;;17.17;;
23888;SDS011;12125;40.102;18.326;2022-10-18T07:08:15;21.10;;;19.10;;
23888;SDS011;12125;40.102;18.326;2022-10-18T07:10:42;33.22;;;18.85;;
23888;SDS011;12125;40.102;18.326;2022-10-18T07:13:08;22.88;;;20.60;;
23888;SDS011;12125;40.102;18.326;2022-10-18T07:15:35;22.67;;;19.60;;
23888;SDS011;12125;40.102;18.326;2022-10-18T07:18:03;22.13;;;20.02;;
23888;SDS011;12125;40.102;18.326;2022-10-18T07:20:30;22.10;;;19.83;;
23888;SDS011;12125;40.102;18.326;2022-10-18T07:22:58;26.00;;;23.25;;
23888;SDS011;12125;40.102;18.326;2022-10-18T07:25:25;23.58;;;21.38;;
23888;SDS011;12125;40.102;18.326;2022-10-18T07:27:51;22.17;;;19.90;;
23888;SDS011;12125;40.102;18.326;2022-10-18T07:30:18;21.17;;;18.98;;
23888;SDS011;12125;40.102;18.326;2022-10-18T07:32:45;23.00;;;19.20;;
23888;SDS011;12125;40.102;18.326;2022-10-18T07:35:12;20.15;;;18.17;;
23888;SDS011;12125;40.102;18.326;2022-10-18T07:37:38;20.27;;;18.42;;
23888;SDS011;12125;40.102;18.326;2022-10-18T07:40:05;19.35;;;17.55;;
23888;SDS011;12125;40.102;18.326;2022-10-18T07:42:33;26.50;;;19.83;;
23888;SDS011;12125;40.102;18.326;2022-10-18T07:45:00;21.38;;;19.15;;
23888;SDS011;12125;40.102;18.326;2022-10-18T07:47:26;21.95;;;19.80;;
23888;SDS011;12125;40.102;18.326;2022-10-18T07:49:53;21.08;;;18.75;;
23888;SDS011;12125;40.102;18.326;2022-10-18T07:52:20;21.35;;;19.02;;
23888;SDS011;12125;40.102;18.326;2022-10-18T07:54:47;20.80;;;18.67;;
23888;SDS011;12125;40.102;18.326;2022-10-18T07:57:13;22.13;;;20.08;;
23888;SDS011;12125;40.102;18.326;2022-10-18T07:59:39;23.73;;;19.63;;
23888;SDS011;12125;40.102;18.326;2022-10-18T08:02:09;23.63;;;21.42;;
23888;SDS011;12125;40.102;18.326;2022-10-18T08:04:36;23.35;;;20.13;;
23888;SDS011;12125;40.102;18.326;2022-10-18T08:07:02;24.08;;;21.48;;
23888;SDS011;12125;40.102;18.326;2022-10-18T08:09:29;25.58;;;21.33;;
23888;SDS011;12125;40.102;18.326;2022-10-18T08:11:56;22.13;;;19.77;;
23888;SDS011;12125;40.102;18.326;2022-10-18T08:14:23;22.13;;;19.83;;
23888;SDS011;12125;40.102;18.326;2022-10-18T08:16:49;21.02;;;18.98;;
23888;SDS011;12125;40.102;18.326;2022-10-18T08:19:16;20.75;;;18.60;;
23888;SDS011;12125;40.102;18.326;2022-10-18T08:21:43;20.73;;;18.45;;
23888;SDS011;12125;40.102;18.326;2022-10-18T08:24:10;21.23;;;18.92;;
23888;SDS011;12125;40.102;18.326;2022-10-18T08:26:36;26.63;;;17.70;;
23888;SDS011;12125;40.102;18.326;2022-10-18T08:29:03;20.70;;;18.38;;
23888;SDS011;12125;40.102;18.326;2022-10-18T08:31:30;22.35;;;18.20;;
23888;SDS011;12125;40.102;18.326;2022-10-18T08:33:56;20.58;;;18.33;;
23888;SDS011;12125;40.102;18.326;2022-10-18T08:36:24;24.90;;;20.50;;
23888;SDS011;12125;40.102;18.326;2022-10-18T08:38:51;21.98;;;19.38;;
23888;SDS011;12125;40.102;18.326;2022-10-18T08:41:27;21.90;;;18.90;;
23888;SDS011;12125;40.102;18.326;2022-10-18T08:44:05;21.02;;;18.77;;
23888;SDS011;12125;40.102;18.326;2022-10-18T08:46:33;21.65;;;19.20;;
23888;SDS011;12125;40.102;18.326;2022-10-18T08:49:00;21.30;;;19.17;;
23888;SDS011;12125;40.102;18.326;2022-10-18T08:51:32;20.42;;;18.33;;
23888;SDS011;12125;40.102;18.326;2022-10-18T08:54:05;21.60;;;19.30;;
23888;SDS011;12125;40.102;18.326;2022-10-18T08:59:00;18.50;;;16.42;;
23888;SDS011;12125;40.102;18.326;2022-10-18T09:01:43;21.38;;;17.92;;
23888;SDS011;12125;40.102;18.326;2022-10-18T09:04:24;22.02;;;17.45;;
23888;SDS011;12125;40.102;18.326;2022-10-18T09:07:01;21.33;;;17.52;;
23888;SDS011;12125;40.102;18.326;2022-10-18T09:12:01;23.65;;;17.60;;
23888;SDS011;12125;40.102;18.326;2022-10-18T09:19:40;19.83;;;16.50;;
23888;SDS011;12125;40.102;18.326;2022-10-18T09:22:13;20.55;;;18.13;;
23888;SDS011;12125;40.102;18.326;2022-10-18T09:24:43;20.00;;;17.83;;
23888;SDS011;12125;40.102;18.326;2022-10-18T09:27:13;20.83;;;17.87;;
23888;SDS011;12125;40.102;18.326;2022-10-18T09:29:57;25.55;;;15.80;;
23888;SDS011;12125;40.102;18.326;2022-10-18T09:34:56;15.48;;;13.88;;
23888;SDS011;12125;40.102;18.326;2022-10-18T09:37:23;16.90;;;14.82;;
23888;SDS011;12125;40.102;18.326;2022-10-18T09:39:53;21.30;;;15.60;;
23888;SDS011;12125;40.102;18.326;2022-10-18T09:42:33;15.65;;;13.57;;
23888;SDS011;12125;40.102;18.326;2022-10-18T09:45:02;17.25;;;13.40;;
23888;SDS011;12125;40.102;18.326;2022-10-18T09:47:31;14.48;;;12.82;;
23888;SDS011;12125;40.102;18.326;2022-10-18T09:50:00;18.45;;;14.63;;
23888;SDS011;12125;40.102;18.326;2022-10-18T09:52:38;19.63;;;14.02;;
23888;SDS011;12125;40.102;18.326;2022-10-18T09:55:14;17.90;;;14.35;;
23888;SDS011;12125;40.102;18.326;2022-10-18T09:57:45;16.63;;;14.93;;
23888;SDS011;12125;40.102;18.326;2022-10-18T10:00:20;16.00;;;13.82;;
23888;SDS011;12125;40.102;18.326;2022-10-18T10:02:48;14.82;;;13.35;;
23888;SDS011;12125;40.102;18.326;2022-10-18T10:05:15;16.25;;;12.85;;
23888;SDS011;12125;40.102;18.326;2022-10-18T10:07:42;16.95;;;12.10;;
23888;SDS011;12125;40.102;18.326;2022-10-18T10:12:39;14.63;;;11.75;;
23888;SDS011;12125;40.102;18.326;2022-10-18T10:17:42;12.25;;;11.05;;
23888;SDS011;12125;40.102;18.326;2022-10-18T10:22:42;13.57;;;11.48;;
23888;SDS011;12125;40.102;18.326;2022-10-18T10:25:20;12.10;;;10.77;;
23888;SDS011;12125;40.102;18.326;2022-10-18T10:27:48;12.65;;;10.55;;
23888;SDS011;12125;40.102;18.326;2022-10-18T10:30:25;12.30;;;9.80;;
23888;SDS011;12125;40.102;18.326;2022-10-18T10:32:53;9.80;;;8.45;;
23888;SDS011;12125;40.102;18.326;2022-10-18T10:35:30;11.18;;;9.50;;
23888;SDS011;12125;40.102;18.326;2022-10-18T10:37:57;10.57;;;8.57;;
23888;SDS011;12125;40.102;18.326;2022-10-18T10:40:44;10.48;;;8.85;;
23888;SDS011;12125;40.102;18.326;2022-10-18T10:43:23;10.98;;;8.05;;
23888;SDS011;12125;40.102;18.326;2022-10-18T10:48:24;8.32;;;7.45;;
23888;SDS011;12125;40.102;18.326;2022-10-18T10:50:55;10.98;;;7.90;;
23888;SDS011;12125;40.102;18.326;2022-10-18T10:55:56;9.85;;;7.82;;
23888;SDS011;12125;40.102;18.326;2022-10-18T10:58:24;10.52;;;7.82;;
23888;SDS011;12125;40.102;18.326;2022-10-18T11:00:52;10.70;;;7.70;;
23888;SDS011;12125;40.102;18.326;2022-10-18T11:03:19;10.50;;;8.07;;
23888;SDS011;12125;40.102;18.326;2022-10-18T11:05:49;8.25;;;7.45;;
23888;SDS011;12125;40.102;18.326;2022-10-18T11:08:18;8.18;;;7.07;;
23888;SDS011;12125;40.102;18.326;2022-10-18T11:11:04;8.38;;;6.40;;
23888;SDS011;12125;40.102;18.326;2022-10-18T11:13:39;9.15;;;7.35;;
23888;SDS011;12125;40.102;18.326;2022-10-18T11:16:14;10.88;;;8.80;;
23888;SDS011;12125;40.102;18.326;2022-10-18T11:18:42;11.13;;;8.38;;
23888;SDS011;12125;40.102;18.326;2022-10-18T11:21:13;13.88;;;9.50;;
23888;SDS011;12125;40.102;18.326;2022-10-18T11:23:42;15.30;;;9.48;;
23888;SDS011;12125;40.102;18.326;2022-10-18T11:36:38;13.30;;;11.88;;
23888;SDS011;12125;40.102;18.326;2022-10-18T11:41:37;11.80;;;10.57;;
23888;SDS011;12125;40.102;18.326;2022-10-18T11:44:17;12.27;;;10.13;;
23888;SDS011;12125;40.102;18.326;2022-10-18T11:46:59;13.52;;;9.85;;
23888;SDS011;12125;40.102;18.326;2022-10-18T11:49:45;12.07;;;10.43;;
23888;SDS011;12125;40.102;18.326;2022-10-18T11:55:02;12.13;;;10.57;;
23888;SDS011;12125;40.102;18.326;2022-10-18T12:00:16;15.40;;;11.35;;
23888;SDS011;12125;40.102;18.326;2022-10-18T12:02:47;13.40;;;11.63;;
23888;SDS011;12125;40.102;18.326;2022-10-18T12:05:17;14.27;;;10.90;;
23888;SDS011;12125;40.102;18.326;2022-10-18T12:07:47;13.73;;;11.15;;
23888;SDS011;12125;40.102;18.326;2022-10-18T12:10:17;12.32;;;10.57;;
23888;SDS011;12125;40.102;18.326;2022-10-18T12:12:49;18.45;;;10.45;;
23888;SDS011;12125;40.102;18.326;2022-10-18T12:15:17;13.13;;;11.73;;
23888;SDS011;12125;40.102;18.326;2022-10-18T12:17:58;12.93;;;11.05;;
23888;SDS011;12125;40.102;18.326;2022-10-18T12:20:35;12.63;;;10.82;;
23888;SDS011;12125;40.102;18.326;2022-10-18T12:25:32;14.13;;;10.73;;
23888;SDS011;12125;40.102;18.326;2022-10-18T12:30:42;13.98;;;11.82;;
23888;SDS011;12125;40.102;18.326;2022-10-18T12:33:13;13.18;;;10.80;;
23888;SDS011;12125;40.102;18.326;2022-10-18T12:35:56;13.38;;;10.85;;
23888;SDS011;12125;40.102;18.326;2022-10-18T12:38:32;8.70;;;7.80;;
23888;SDS011;12125;40.102;18.326;2022-10-18T12:41:00;9.32;;;8.40;;
23888;SDS011;12125;40.102;18.326;2022-10-18T12:43:28;11.07;;;9.88;;
23888;SDS011;12125;40.102;18.326;2022-10-18T12:46:05;11.20;;;8.88;;
23888;SDS011;12125;40.102;18.326;2022-10-18T12:48:33;9.50;;;8.13;;
23888;SDS011;12125;40.102;18.326;2022-10-18T12:51:05;9.10;;;8.07;;
23888;SDS011;12125;40.102;18.326;2022-10-18T12:53:32;9.73;;;8.60;;
23888;SDS011;12125;40.102;18.326;2022-10-18T13:04:40;12.30;;;6.10;;
23888;SDS011;12125;40.102;18.326;2022-10-18T13:09:34;7.65;;;6.40;;
23888;SDS011;12125;40.102;18.326;2022-10-18T13:17:16;11.27;;;8.95;;
23888;SDS011;12125;40.102;18.326;2022-10-18T13:19:51;13.98;;;9.60;;
23888;SDS011;12125;40.102;18.326;2022-10-18T13:24:57;9.85;;;8.32;;
23888;SDS011;12125;40.102;18.326;2022-10-18T13:40:14;9.18;;;5.53;;
23888;SDS011;12125;40.102;18.326;2022-10-18T13:45:42;7.25;;;5.78;;
23888;SDS011;12125;40.102;18.326;2022-10-18T13:50:57;4.97;;;4.40;;
23888;SDS011;12125;40.102;18.326;2022-10-18T13:56:39;8.50;;;5.20;;
23888;SDS011;12125;40.102;18.326;2022-10-18T13:58:55;6.80;;;4.85;;
23888;SDS011;12125;40.102;18.326;2022-10-18T14:01:29;14.13;;;10.30;;
23888;SDS011;12125;40.102;18.326;2022-10-18T14:06:38;5.85;;;4.75;;
23888;SDS011;12125;40.102;18.326;2022-10-18T14:09:10;9.45;;;3.95;;
23888;SDS011;12125;40.102;18.326;2022-10-18T14:11:39;4.65;;;4.10;;
23888;SDS011;12125;40.102;18.326;2022-10-18T14:14:15;4.00;;;3.40;;
23888;SDS011;12125;40.102;18.326;2022-10-18T14:16:48;13.65;;;8.95;;
23888;SDS011;12125;40.102;18.326;2022-10-18T14:21:45;17.58;;;7.22;;
23888;SDS011;12125;40.102;18.326;2022-10-18T14:26:40;6.35;;;4.95;;
23888;SDS011;12125;40.102;18.326;2022-10-18T14:29:15;11.23;;;6.60;;
23888;SDS011;12125;40.102;18.326;2022-10-18T14:31:42;8.55;;;6.07;;
23888;SDS011;12125;40.102;18.326;2022-10-18T14:34:15;8.73;;;5.95;;
23888;SDS011;12125;40.102;18.326;2022-10-18T14:36:41;8.90;;;5.68;;
23888;SDS011;12125;40.102;18.326;2022-10-18T14:39:20;7.70;;;4.63;;
23888;SDS011;12125;40.102;18.326;2022-10-18T14:41:51;13.43;;;8.98;;
23888;SDS011;12125;40.102;18.326;2022-10-18T14:44:19;13.77;;;9.50;;
23888;SDS011;12125;40.102;18.326;2022-10-18T14:46:57;10.25;;;7.00;;
23888;SDS011;12125;40.102;18.326;2022-10-18T14:49:23;15.00;;;11.18;;
23888;SDS011;12125;40.102;18.326;2022-10-18T14:51:51;10.55;;;7.80;;
23888;SDS011;12125;40.102;18.326;2022-10-18T14:54:20;13.57;;;9.00;;
23888;SDS011;12125;40.102;18.326;2022-10-18T14:56:51;11.45;;;8.38;;
23888;SDS011;12125;40.102;18.326;2022-10-18T14:59:23;10.60;;;7.43;;
23888;SDS011;12125;40.102;18.326;2022-10-18T15:01:52;13.77;;;11.68;;
23888;SDS011;12125;40.102;18.326;2022-10-18T15:04:19;7.85;;;6.75;;
23888;SDS011;12125;40.102;18.326;2022-10-18T15:06:47;19.35;;;10.10;;
23888;SDS011;12125;40.102;18.326;2022-10-18T15:09:13;15.30;;;12.00;;
23888;SDS011;12125;40.102;18.326;2022-10-18T15:11:42;23.23;;;15.55;;
23888;SDS011;12125;40.102;18.326;2022-10-18T15:14:12;19.10;;;14.88;;
23888;SDS011;12125;40.102;18.326;2022-10-18T15:16:39;50.47;;;32.83;;
23888;SDS011;12125;40.102;18.326;2022-10-18T15:19:07;13.60;;;10.25;;
23888;SDS011;12125;40.102;18.326;2022-10-18T15:21:56;21.98;;;15.02;;
23888;SDS011;12125;40.102;18.326;2022-10-18T15:26:54;31.83;;;20.33;;
23888;SDS011;12125;40.102;18.326;2022-10-18T15:29:24;19.63;;;12.45;;
23888;SDS011;12125;40.102;18.326;2022-10-18T15:31:52;24.20;;;13.77;;
23888;SDS011;12125;40.102;18.326;2022-10-18T15:34:19;16.88;;;12.50;;
23888;SDS011;12125;40.102;18.326;2022-10-18T15:36:47;12.10;;;9.20;;
23888;SDS011;12125;40.102;18.326;2022-10-18T15:39:18;23.25;;;16.58;;
23888;SDS011;12125;40.102;18.326;2022-10-18T15:41:59;56.15;;;43.55;;
23888;SDS011;12125;40.102;18.326;2022-10-18T15:44:47;22.88;;;18.67;;
23888;SDS011;12125;40.102;18.326;2022-10-18T15:47:16;20.90;;;15.15;;
23888;SDS011;12125;40.102;18.326;2022-10-18T15:54:47;18.05;;;11.48;;
23888;SDS011;12125;40.102;18.326;2022-10-18T15:57:20;26.08;;;18.63;;
23888;SDS011;12125;40.102;18.326;2022-10-18T15:59:53;48.38;;;31.90;;
23888;SDS011;12125;40.102;18.326;2022-10-18T16:02:22;18.45;;;13.63;;
23888;SDS011;12125;40.102;18.326;2022-10-18T16:04:49;21.92;;;15.18;;
23888;SDS011;12125;40.102;18.326;2022-10-18T16:07:16;21.02;;;16.15;;
23888;SDS011;12125;40.102;18.326;2022-10-18T16:09:43;21.10;;;15.88;;
23888;SDS011;12125;40.102;18.326;2022-10-18T16:12:10;15.07;;;11.20;;
23888;SDS011;12125;40.102;18.326;2022-10-18T16:14:36;12.65;;;11.35;;
23888;SDS011;12125;40.102;18.326;2022-10-18T16:17:04;15.65;;;10.20;;
23888;SDS011;12125;40.102;18.326;2022-10-18T16:19:31;15.25;;;11.23;;
23888;SDS011;12125;40.102;18.326;2022-10-18T16:21:58;12.18;;;10.80;;